createdAt,value
2022-11-29T00:01:38.975Z,8.21
2022-11-29T00:04:08.544Z,8.15
2022-11-29T00:06:36.581Z,8.13
2022-11-29T00:09:08.090Z,8.11
2022-11-29T00:11:36.779Z,8.13
2022-11-29T00:14:05.202Z,8.14
2022-11-29T00:16:32.244Z,8.13
2022-11-29T00:18:59.076Z,8.14
2022-11-29T00:21:29.569Z,8.12
2022-11-29T00:23:56.470Z,8.07
2022-11-29T00:26:25.117Z,8.07
2022-11-29T00:28:52.377Z,8.04
2022-11-29T00:31:22.481Z,8.03
2022-11-29T00:33:50.008Z,8.04
2022-11-29T00:36:20.414Z,8.01
2022-11-29T00:38:54.365Z,8.01
2022-11-29T00:41:21.304Z,7.97
2022-11-29T00:43:48.029Z,7.95
2022-11-29T00:46:15.403Z,7.94
2022-11-29T00:48:47.961Z,7.88
2022-11-29T00:51:16.533Z,7.86
2022-11-29T00:53:43.297Z,7.88
2022-11-29T00:56:11.885Z,7.87
2022-11-29T00:58:38.877Z,7.80
2022-11-29T01:01:06.342Z,7.79
2022-11-29T01:03:34.664Z,7.77
2022-11-29T01:06:01.996Z,7.74
2022-11-29T01:08:29.085Z,7.74
2022-11-29T01:11:08.045Z,7.72
2022-11-29T01:13:40.815Z,7.69
2022-11-29T01:16:08.532Z,7.67
2022-11-29T01:18:36.143Z,7.65
2022-11-29T01:21:05.104Z,7.58
2022-11-29T01:23:32.495Z,7.58
2022-11-29T01:26:01.541Z,7.56
2022-11-29T01:28:30.307Z,7.58
2022-11-29T01:31:05.899Z,7.54
2022-11-29T01:33:32.762Z,7.50
2022-11-29T01:35:59.461Z,7.50
2022-11-29T01:38:26.310Z,7.50
2022-11-29T01:41:00.506Z,7.48
2022-11-29T01:43:29.588Z,7.44
2022-11-29T01:45:58.322Z,7.39
2022-11-29T01:48:28.406Z,7.35
2022-11-29T01:51:08.523Z,7.31
2022-11-29T01:53:49.433Z,7.34
2022-11-29T01:56:19.084Z,7.29
2022-11-29T01:58:46.312Z,7.29
2022-11-29T02:01:16.314Z,7.30
2022-11-29T02:03:43.566Z,7.34
2022-11-29T02:06:10.933Z,7.38
2022-11-29T02:08:43.034Z,7.39
2022-11-29T02:11:43.517Z,7.44
2022-11-29T02:14:23.941Z,7.49
2022-11-29T02:16:58.191Z,7.51
2022-11-29T02:19:55.142Z,7.58
2022-11-29T02:22:29.936Z,7.60
2022-11-29T02:25:12.907Z,7.63
2022-11-29T02:28:16.500Z,7.67
2022-11-29T02:31:08.934Z,7.65
2022-11-29T02:34:04.596Z,7.67
2022-11-29T02:36:57.033Z,7.73
2022-11-29T02:39:46.707Z,7.74
2022-11-29T02:42:41.375Z,7.78
2022-11-29T02:45:17.403Z,7.77
2022-11-29T02:47:59.558Z,7.80
2022-11-29T02:50:38.852Z,7.79
2022-11-29T02:53:15.474Z,7.80
2022-11-29T02:55:53.535Z,7.82
2022-11-29T02:58:26.906Z,7.87
2022-11-29T03:01:02.706Z,7.89
2022-11-29T03:03:37.791Z,7.90
2022-11-29T03:06:16.951Z,7.88
2022-11-29T03:08:52.852Z,7.88
2022-11-29T03:11:29.110Z,7.91
2022-11-29T03:14:14.227Z,7.92
2022-11-29T03:16:46.973Z,7.93
2022-11-29T03:19:35.797Z,8.00
2022-11-29T03:22:12.025Z,8.01
2022-11-29T03:24:45.443Z,8.01
2022-11-29T03:27:16.607Z,8.02
2022-11-29T03:29:49.490Z,8.03
2022-11-29T03:32:21.751Z,8.02
2022-11-29T03:34:59.457Z,8.04
2022-11-29T03:37:38.273Z,8.07
2022-11-29T03:40:10.753Z,8.06
2022-11-29T03:42:42.851Z,8.14
2022-11-29T03:45:17.609Z,8.07
2022-11-29T03:47:51.461Z,8.07
2022-11-29T03:50:23.372Z,8.08
2022-11-29T03:52:55.942Z,8.09
2022-11-29T03:55:34.283Z,8.15
2022-11-29T03:58:17.497Z,8.09
2022-11-29T04:01:04.761Z,8.11
2022-11-29T04:03:54.003Z,8.14
2022-11-29T04:06:35.164Z,8.13
2022-11-29T04:09:34.536Z,8.15
2022-11-29T04:12:30.508Z,8.17
2022-11-29T04:15:44.819Z,8.18
2022-11-29T04:18:56.334Z,8.18
2022-11-29T04:21:37.911Z,8.18
2022-11-29T04:24:34.937Z,8.18
2022-11-29T04:27:36.578Z,8.20
2022-11-29T04:30:19.671Z,8.21
2022-11-29T04:33:13.005Z,8.20
2022-11-29T04:36:05.216Z,8.18
2022-11-29T04:38:51.466Z,8.21
2022-11-29T04:41:31.714Z,8.17
2022-11-29T04:44:18.744Z,8.20
2022-11-29T04:47:02.876Z,8.20
2022-11-29T04:49:53.460Z,8.23
2022-11-29T04:52:36.788Z,8.20
2022-11-29T04:55:27.677Z,8.22
2022-11-29T04:58:09.494Z,8.24
2022-11-29T05:00:49.750Z,8.23
2022-11-29T05:03:34.817Z,8.26
2022-11-29T05:06:14.900Z,8.23
2022-11-29T05:08:50.541Z,8.25
2022-11-29T05:11:26.917Z,8.28
2022-11-29T05:14:02.298Z,8.27
2022-11-29T05:16:44.931Z,8.29
2022-11-29T05:19:34.406Z,8.29
2022-11-29T05:22:14.126Z,8.28
2022-11-29T05:24:52.269Z,8.27
2022-11-29T05:27:33.188Z,8.31
2022-11-29T05:30:11.139Z,8.32
2022-11-29T05:32:49.591Z,8.33
2022-11-29T05:35:34.385Z,8.35
2022-11-29T05:38:12.047Z,8.36
2022-11-29T05:40:46.043Z,8.35
2022-11-29T05:43:47.505Z,8.37
2022-11-29T05:46:21.488Z,8.35
2022-11-29T05:48:58.847Z,8.38
2022-11-29T05:51:39.138Z,8.36
2022-11-29T05:54:18.515Z,8.37
2022-11-29T05:56:56.400Z,8.37
2022-11-29T05:59:27.691Z,8.39
2022-11-29T06:02:04.094Z,8.38
2022-11-29T06:04:51.445Z,8.41
2022-11-29T06:07:23.269Z,8.39
2022-11-29T06:10:00.610Z,8.41
2022-11-29T06:12:29.663Z,8.40
2022-11-29T06:15:20.550Z,8.43
2022-11-29T06:18:01.976Z,8.42
2022-11-29T06:20:58.577Z,8.42
2022-11-29T06:23:51.629Z,8.43
2022-11-29T06:26:21.995Z,8.45
2022-11-29T06:29:00.619Z,8.41
2022-11-29T06:31:32.464Z,8.39
2022-11-29T06:34:06.602Z,8.41
2022-11-29T06:36:42.166Z,8.40
2022-11-29T06:39:10.514Z,8.39
2022-11-29T06:41:37.577Z,8.40
2022-11-29T06:44:05.039Z,8.36
2022-11-29T06:46:43.470Z,8.38
2022-11-29T06:49:14.648Z,8.40
2022-11-29T06:51:52.246Z,8.40
2022-11-29T06:54:38.463Z,8.40
2022-11-29T06:57:12.965Z,8.37
2022-11-29T06:59:52.517Z,8.39
2022-11-29T07:02:36.463Z,8.39
2022-11-29T07:05:14.989Z,8.37
2022-11-29T07:07:43.909Z,8.35
2022-11-29T07:10:15.859Z,8.34
2022-11-29T07:12:44.038Z,8.33
2022-11-29T07:15:14.654Z,8.35
2022-11-29T07:17:54.276Z,8.36
2022-11-29T07:20:27.805Z,8.35
2022-11-29T07:23:06.491Z,8.37
2022-11-29T07:25:42.039Z,8.36
2022-11-29T07:28:18.199Z,8.38
2022-11-29T07:30:54.840Z,8.39
2022-11-29T07:33:33.162Z,8.41
2022-11-29T07:36:08.455Z,8.42
2022-11-29T07:38:47.086Z,8.43
2022-11-29T07:41:21.596Z,8.45
2022-11-29T07:43:57.392Z,8.47
2022-11-29T07:46:24.145Z,8.48
2022-11-29T07:48:51.117Z,8.48
2022-11-29T07:51:17.964Z,8.49
2022-11-29T07:53:46.020Z,8.53
2022-11-29T07:56:13.002Z,8.55
2022-11-29T07:58:40.137Z,8.56
2022-11-29T08:01:07.028Z,8.52
2022-11-29T08:03:34.583Z,8.55
2022-11-29T08:06:01.702Z,8.57
2022-11-29T08:08:28.307Z,8.60
2022-11-29T08:10:56.356Z,8.59
2022-11-29T08:13:23.363Z,8.62
2022-11-29T08:15:50.128Z,8.61
2022-11-29T08:18:17.191Z,8.63
2022-11-29T08:20:44.506Z,8.62
2022-11-29T08:23:12.879Z,8.63
2022-11-29T08:25:39.940Z,8.64
2022-11-29T08:28:08.519Z,8.64
2022-11-29T08:30:37.412Z,8.63
2022-11-29T08:33:04.799Z,8.60
2022-11-29T08:35:31.732Z,8.60
2022-11-29T08:37:58.873Z,8.56
2022-11-29T08:40:25.556Z,8.59
2022-11-29T08:42:52.462Z,8.59
2022-11-29T08:45:28.221Z,8.61
2022-11-29T08:47:54.925Z,8.58
2022-11-29T08:50:22.034Z,8.57
2022-11-29T08:52:49.681Z,8.56
2022-11-29T08:55:16.741Z,8.57
2022-11-29T08:57:43.560Z,8.60
2022-11-29T09:00:11.557Z,8.65
2022-11-29T09:02:40.389Z,8.71
2022-11-29T09:05:09.275Z,8.72
2022-11-29T09:07:36.257Z,8.76
2022-11-29T09:10:03.237Z,8.80
2022-11-29T09:12:30.048Z,8.82
2022-11-29T09:14:56.890Z,8.82
2022-11-29T09:17:23.619Z,8.80
2022-11-29T09:19:51.920Z,8.78
2022-11-29T09:22:18.484Z,8.73
2022-11-29T09:24:45.454Z,8.73
2022-11-29T09:27:13.728Z,8.77
2022-11-29T09:29:40.630Z,8.72
2022-11-29T09:32:07.199Z,8.77
2022-11-29T09:34:34.099Z,8.80
2022-11-29T09:37:02.149Z,8.81
2022-11-29T09:39:29.379Z,8.88
2022-11-29T09:42:37.301Z,9.02
2022-11-29T09:45:07.969Z,9.04
2022-11-29T09:47:58.059Z,9.19
2022-11-29T09:50:31.301Z,9.26
2022-11-29T09:53:17.410Z,9.33
2022-11-29T09:55:59.624Z,9.27
2022-11-29T09:58:31.662Z,9.23
2022-11-29T10:01:02.774Z,9.18
2022-11-29T10:03:34.767Z,9.18
2022-11-29T10:06:07.198Z,9.25
2022-11-29T10:08:40.799Z,9.27
2022-11-29T10:11:20.694Z,9.31
2022-11-29T10:13:52.089Z,9.28
2022-11-29T10:16:25.295Z,9.27
2022-11-29T10:18:58.813Z,9.24
2022-11-29T10:21:32.527Z,9.23
2022-11-29T10:24:07.043Z,9.31
2022-11-29T10:26:35.469Z,9.30
2022-11-29T10:29:02.486Z,9.30
2022-11-29T10:31:33.058Z,9.31
2022-11-29T10:34:02.206Z,9.27
2022-11-29T10:36:34.697Z,9.26
2022-11-29T10:39:08.806Z,9.31
2022-11-29T10:41:40.086Z,9.33
2022-11-29T10:44:16.030Z,9.36
2022-11-29T10:46:43.015Z,9.36
2022-11-29T10:49:14.917Z,9.36
2022-11-29T10:51:43.435Z,9.37
2022-11-29T10:54:28.763Z,9.40
2022-11-29T10:56:57.314Z,9.38
2022-11-29T10:59:27.204Z,9.32
2022-11-29T11:01:54.666Z,9.30
2022-11-29T11:04:29.815Z,9.27
2022-11-29T11:07:07.394Z,9.21
2022-11-29T11:09:46.079Z,9.19
2022-11-29T11:12:19.165Z,9.18
2022-11-29T11:14:46.823Z,9.18
2022-11-29T11:17:22.537Z,9.21
2022-11-29T11:19:55.464Z,9.28
2022-11-29T11:22:29.783Z,9.33
2022-11-29T11:25:05.072Z,9.41
2022-11-29T11:27:36.179Z,9.43
2022-11-29T11:30:22.581Z,9.51
2022-11-29T11:33:07.835Z,9.49
2022-11-29T11:35:34.737Z,9.43
2022-11-29T11:38:01.395Z,9.41
2022-11-29T11:40:30.922Z,9.39
2022-11-29T11:43:01.146Z,9.40
2022-11-29T11:45:33.466Z,9.39
2022-11-29T11:48:03.783Z,9.42
2022-11-29T11:50:35.170Z,9.43
2022-11-29T11:53:05.204Z,9.43
2022-11-29T11:55:40.343Z,9.46
2022-11-29T11:58:17.049Z,9.40
2022-11-29T12:01:04.038Z,9.35
2022-11-29T12:03:43.884Z,9.37
2022-11-29T12:06:27.125Z,9.39
2022-11-29T12:08:58.326Z,9.39
2022-11-29T12:11:31.997Z,9.39
2022-11-29T12:14:02.043Z,9.36
2022-11-29T12:16:35.242Z,9.34
2022-11-29T12:19:11.910Z,9.30
2022-11-29T12:21:43.625Z,9.30
2022-11-29T12:24:20.378Z,9.28
2022-11-29T12:26:58.597Z,9.22
2022-11-29T12:29:28.575Z,9.17
2022-11-29T12:32:06.900Z,9.19
2022-11-29T12:34:49.988Z,9.19
2022-11-29T12:37:25.608Z,9.18
2022-11-29T12:39:57.364Z,9.17
2022-11-29T12:42:44.152Z,9.18
2022-11-29T12:45:34.297Z,9.18
2022-11-29T12:48:14.063Z,9.18
2022-11-29T12:50:52.320Z,9.20
2022-11-29T12:53:32.954Z,9.28
2022-11-29T12:56:09.423Z,9.32
2022-11-29T12:58:53.408Z,9.31
2022-11-29T13:01:31.290Z,9.30
2022-11-29T13:04:08.834Z,9.29
2022-11-29T13:06:43.935Z,9.29
2022-11-29T13:09:38.666Z,9.28
2022-11-29T13:12:13.393Z,9.26
2022-11-29T13:14:47.581Z,9.26
2022-11-29T13:17:27.699Z,9.22
2022-11-29T13:20:00.037Z,9.19
2022-11-29T13:22:36.728Z,9.19
2022-11-29T13:25:12.281Z,9.17
2022-11-29T13:27:43.149Z,9.17
2022-11-29T13:30:16.290Z,9.12
2022-11-29T13:32:52.835Z,9.12
2022-11-29T13:35:24.622Z,9.13
2022-11-29T13:37:55.654Z,9.15
2022-11-29T13:40:35.233Z,9.09
2022-11-29T13:43:11.217Z,9.10
2022-11-29T13:45:46.689Z,9.09
2022-11-29T13:48:33.546Z,9.08
2022-11-29T13:51:25.900Z,9.07
2022-11-29T13:53:54.163Z,9.03
2022-11-29T13:56:27.797Z,9.05
2022-11-29T13:58:54.623Z,9.10
2022-11-29T14:01:22.855Z,9.01
2022-11-29T14:04:03.634Z,9.05
2022-11-29T14:06:34.873Z,9.02
2022-11-29T14:09:25.384Z,9.02
2022-11-29T14:12:00.785Z,9.01
2022-11-29T14:14:32.771Z,8.99
2022-11-29T14:17:02.628Z,8.97
2022-11-29T14:19:33.841Z,8.90
2022-11-29T14:22:28.036Z,8.94
2022-11-29T14:25:49.304Z,8.87
2022-11-29T14:28:22.849Z,8.91
2022-11-29T14:30:51.937Z,8.82
2022-11-29T14:33:52.436Z,8.82
2022-11-29T14:36:27.770Z,8.79
2022-11-29T14:39:04.448Z,8.75
2022-11-29T14:41:42.905Z,8.71
2022-11-29T14:44:21.851Z,8.73
2022-11-29T14:46:59.172Z,8.70
2022-11-29T14:49:29.437Z,8.70
2022-11-29T14:52:07.756Z,8.69
2022-11-29T14:54:35.857Z,8.68
2022-11-29T14:57:32.337Z,8.67
2022-11-29T15:00:01.636Z,8.66
2022-11-29T15:02:32.408Z,8.64
2022-11-29T15:05:14.495Z,8.67
2022-11-29T15:07:46.573Z,8.67
2022-11-29T15:10:22.628Z,8.65
2022-11-29T15:12:52.640Z,8.64
2022-11-29T15:15:38.036Z,8.65
2022-11-29T15:18:17.388Z,8.60
2022-11-29T15:21:00.354Z,8.62
2022-11-29T15:23:28.055Z,8.58
2022-11-29T15:26:00.541Z,8.61
2022-11-29T15:28:28.740Z,8.54
2022-11-29T15:31:03.961Z,8.56
2022-11-29T15:33:30.897Z,8.54
2022-11-29T15:36:05.901Z,8.57
2022-11-29T15:38:42.154Z,8.54
2022-11-29T15:41:22.076Z,8.57
2022-11-29T15:43:52.477Z,8.54
2022-11-29T15:46:20.199Z,8.52
2022-11-29T15:48:46.973Z,8.55
2022-11-29T15:51:25.072Z,8.53
2022-11-29T15:54:12.288Z,8.53
2022-11-29T15:56:43.950Z,8.49
2022-11-29T15:59:18.316Z,8.54
2022-11-29T16:01:52.306Z,8.52
2022-11-29T16:04:21.380Z,8.50
2022-11-29T16:06:49.951Z,8.50
2022-11-29T16:09:36.143Z,8.54
2022-11-29T16:12:03.642Z,8.51
2022-11-29T16:14:30.792Z,8.51
2022-11-29T16:16:59.768Z,8.54
2022-11-29T16:19:31.855Z,8.49
2022-11-29T16:22:08.092Z,8.47
2022-11-29T16:24:36.529Z,8.43
2022-11-29T16:27:04.572Z,8.42
2022-11-29T16:29:35.584Z,8.38
2022-11-29T16:32:13.613Z,8.29
2022-11-29T16:34:42.650Z,8.24
2022-11-29T16:37:16.740Z,8.17
2022-11-29T16:39:46.432Z,8.08
2022-11-29T16:42:20.541Z,8.01
2022-11-29T16:45:06.295Z,7.98
2022-11-29T16:47:45.683Z,7.95
2022-11-29T16:50:15.685Z,7.92
2022-11-29T16:52:44.083Z,7.90
2022-11-29T16:55:11.142Z,7.80
2022-11-29T16:57:38.421Z,7.85
2022-11-29T17:00:21.233Z,7.83
2022-11-29T17:02:48.280Z,7.80
2022-11-29T17:05:15.177Z,7.82
2022-11-29T17:07:43.513Z,7.73
2022-11-29T17:10:16.592Z,7.75
2022-11-29T17:12:47.761Z,7.66
2022-11-29T17:15:15.212Z,7.66
2022-11-29T17:17:42.968Z,7.65
2022-11-29T17:20:11.579Z,7.62
2022-11-29T17:22:38.310Z,7.55
2022-11-29T17:25:07.469Z,7.46
2022-11-29T17:27:35.074Z,7.35
2022-11-29T17:30:02.632Z,7.32
2022-11-29T17:32:29.572Z,7.25
2022-11-29T17:34:56.588Z,7.24
2022-11-29T17:37:23.143Z,7.09
2022-11-29T17:39:52.334Z,7.03
2022-11-29T17:42:20.411Z,6.99
2022-11-29T17:44:47.159Z,6.98
2022-11-29T17:47:14.008Z,6.90
2022-11-29T17:49:40.657Z,6.77
2022-11-29T17:52:07.264Z,6.66
2022-11-29T17:54:34.174Z,6.65
2022-11-29T17:57:00.881Z,6.67
2022-11-29T17:59:29.254Z,6.58
2022-11-29T18:01:55.969Z,6.47
2022-11-29T18:04:22.834Z,6.41
2022-11-29T18:06:50.509Z,6.38
2022-11-29T18:09:18.322Z,6.36
2022-11-29T18:11:49.356Z,6.32
2022-11-29T18:14:19.019Z,6.31
2022-11-29T18:16:47.208Z,6.19
2022-11-29T18:19:17.117Z,6.09
2022-11-29T18:21:43.921Z,6.11
2022-11-29T18:24:10.780Z,6.04
2022-11-29T18:26:38.707Z,5.91
2022-11-29T18:29:06.259Z,5.83
2022-11-29T18:31:35.450Z,5.74
2022-11-29T18:34:05.489Z,5.72
2022-11-29T18:36:34.579Z,5.78
2022-11-29T18:39:03.715Z,5.84
2022-11-29T18:41:32.511Z,5.91
2022-11-29T18:44:01.085Z,5.84
2022-11-29T18:46:29.279Z,5.87
2022-11-29T18:48:56.348Z,5.97
2022-11-29T18:51:24.868Z,5.97
2022-11-29T18:53:51.397Z,6.10
2022-11-29T18:56:21.097Z,6.21
2022-11-29T18:58:58.024Z,6.29
2022-11-29T19:01:27.009Z,6.37
2022-11-29T19:03:56.716Z,6.47
2022-11-29T19:06:26.263Z,6.55
2022-11-29T19:08:53.665Z,6.64
2022-11-29T19:11:22.420Z,6.73
2022-11-29T19:13:53.306Z,6.80
2022-11-29T19:16:20.101Z,6.85
2022-11-29T19:18:51.365Z,6.97
2022-11-29T19:21:19.510Z,7.00
2022-11-29T19:23:52.131Z,7.05
2022-11-29T19:26:19.160Z,7.12
2022-11-29T19:28:46.434Z,7.10
2022-11-29T19:31:15.422Z,7.13
2022-11-29T19:33:43.276Z,7.11
2022-11-29T19:36:12.643Z,7.16
2022-11-29T19:38:40.032Z,7.16
2022-11-29T19:41:12.960Z,7.19
2022-11-29T19:43:40.458Z,7.19
2022-11-29T19:46:08.768Z,7.21
2022-11-29T19:48:35.524Z,7.24
2022-11-29T19:51:02.597Z,7.18
2022-11-29T19:53:29.356Z,7.20
2022-11-29T19:55:56.269Z,7.18
2022-11-29T19:58:24.442Z,7.15
2022-11-29T20:00:51.428Z,7.19
2022-11-29T20:03:18.072Z,7.21
2022-11-29T20:05:53.390Z,7.20
2022-11-29T20:08:22.105Z,7.18
2022-11-29T20:10:48.930Z,7.14
2022-11-29T20:13:15.661Z,7.15
2022-11-29T20:15:43.751Z,7.18
2022-11-29T20:18:10.519Z,7.18
2022-11-29T20:20:37.362Z,7.18
2022-11-29T20:23:04.323Z,7.18
2022-11-29T20:25:31.317Z,7.19
2022-11-29T20:27:58.036Z,7.20
2022-11-29T20:30:24.835Z,7.20
2022-11-29T20:32:53.198Z,7.22
2022-11-29T20:35:20.510Z,7.23
2022-11-29T20:38:09.729Z,7.26
2022-11-29T20:40:43.658Z,7.24
2022-11-29T20:43:15.736Z,7.25
2022-11-29T20:45:42.852Z,7.28
2022-11-29T20:48:16.980Z,7.30
2022-11-29T20:50:46.997Z,7.30
2022-11-29T20:53:29.833Z,7.33
2022-11-29T20:55:56.531Z,7.33
2022-11-29T20:58:23.144Z,7.35
2022-11-29T21:00:49.763Z,7.31
2022-11-29T21:03:19.133Z,7.39
2022-11-29T21:05:46.454Z,7.36
2022-11-29T21:08:15.915Z,7.40
2022-11-29T21:10:42.764Z,7.38
2022-11-29T21:13:11.949Z,7.40
2022-11-29T21:15:39.820Z,7.41
2022-11-29T21:18:07.720Z,7.43
2022-11-29T21:20:36.468Z,7.40
2022-11-29T21:23:09.125Z,7.43
2022-11-29T21:25:44.704Z,7.44
2022-11-29T21:28:13.796Z,7.41
2022-11-29T21:30:41.836Z,7.45
2022-11-29T21:33:09.933Z,7.48
2022-11-29T21:35:38.685Z,7.50
2022-11-29T21:38:06.692Z,7.49
2022-11-29T21:40:33.310Z,7.51
2022-11-29T21:42:59.932Z,7.50
2022-11-29T21:45:27.183Z,7.53
2022-11-29T21:47:53.797Z,7.57
2022-11-29T21:50:22.777Z,7.56
2022-11-29T21:52:52.344Z,7.58
2022-11-29T21:55:18.936Z,7.58
2022-11-29T21:57:45.774Z,7.57
2022-11-29T22:00:13.479Z,7.57
2022-11-29T22:02:41.013Z,7.58
2022-11-29T22:05:08.131Z,7.60
2022-11-29T22:07:34.921Z,7.62
2022-11-29T22:10:07.151Z,7.63
2022-11-29T22:12:36.797Z,7.64
2022-11-29T22:15:03.857Z,7.64
2022-11-29T22:17:30.600Z,7.65
2022-11-29T22:19:57.174Z,7.67
2022-11-29T22:22:28.128Z,7.67
2022-11-29T22:24:55.167Z,7.67
2022-11-29T22:27:23.402Z,7.69
2022-11-29T22:29:49.946Z,7.66
2022-11-29T22:32:16.592Z,7.68
2022-11-29T22:34:43.371Z,7.68
2022-11-29T22:37:10.126Z,7.67
2022-11-29T22:39:36.862Z,7.70
2022-11-29T22:42:03.612Z,7.70
2022-11-29T22:44:32.438Z,7.68
2022-11-29T22:46:59.151Z,7.70
2022-11-29T22:49:26.000Z,7.70
2022-11-29T22:51:53.498Z,7.72
2022-11-29T22:54:20.961Z,7.72
2022-11-29T22:56:47.845Z,7.72
2022-11-29T22:59:14.823Z,7.75
2022-11-29T23:01:43.105Z,7.75
2022-11-29T23:04:11.550Z,7.75
2022-11-29T23:06:40.134Z,7.77
2022-11-29T23:09:09.532Z,7.75
2022-11-29T23:11:38.215Z,7.74
2022-11-29T23:14:04.754Z,7.76
2022-11-29T23:16:31.670Z,7.77
2022-11-29T23:19:01.316Z,7.74
2022-11-29T23:21:29.896Z,7.73
2022-11-29T23:23:57.243Z,7.73
2022-11-29T23:26:26.325Z,7.74
2022-11-29T23:28:54.197Z,7.76
2022-11-29T23:31:22.438Z,7.75
2022-11-29T23:33:50.379Z,7.76
2022-11-29T23:36:18.715Z,7.74
2022-11-29T23:38:47.700Z,7.79
2022-11-29T23:41:14.740Z,7.76
2022-11-29T23:43:42.795Z,7.75
2022-11-29T23:46:13.036Z,7.76
2022-11-29T23:48:39.964Z,7.77
2022-11-29T23:51:06.813Z,7.77
2022-11-29T23:53:34.823Z,7.79
2022-11-29T23:56:03.218Z,7.78
2022-11-29T23:58:30.872Z,7.79
